sensor_id;sensor_type;location;lat;lon;timestamp;temperature;humidity
73438;DHT22;66471;56.532;21.020;2023-01-08T10:33:36;0.40;99.00
73438;DHT22;66471;56.532;21.020;2023-01-08T10:36:06;0.40;99.00
73438;DHT22;66471;56.532;21.020;2023-01-08T10:38:41;0.40;98.90
73438;DHT22;66471;56.532;21.020;2023-01-08T10:41:14;0.70;98.60
73438;DHT22;66471;56.532;21.020;2023-01-08T10:46:25;0.80;98.30
73438;DHT22;66471;56.532;21.020;2023-01-08T10:48:58;0.80;97.90
73438;DHT22;66471;56.532;21.020;2023-01-08T10:51:28;0.80;97.70
73438;DHT22;66471;56.532;21.020;2023-01-08T10:53:59;1.00;97.60
73438;DHT22;66471;56.532;21.020;2023-01-08T10:56:29;0.80;97.70
73438;DHT22;66471;56.532;21.020;2023-01-08T10:58:57;0.80;97.40
73438;DHT22;66471;56.532;21.020;2023-01-08T11:01:25;0.90;97.20
73438;DHT22;66471;56.532;21.020;2023-01-08T11:03:58;1.10;96.90
73438;DHT22;66471;56.532;21.020;2023-01-08T11:06:30;1.20;96.80
73438;DHT22;66471;56.532;21.020;2023-01-08T11:09:19;1.30;96.20
73438;DHT22;66471;56.532;21.020;2023-01-08T11:11:48;1.50;96.10
73438;DHT22;66471;56.532;21.020;2023-01-08T11:14:32;1.40;95.70
73438;DHT22;66471;56.532;21.020;2023-01-08T11:17:08;1.40;95.70
73438;DHT22;66471;56.532;21.020;2023-01-08T11:19:36;1.50;95.20
73438;DHT22;66471;56.532;21.020;2023-01-08T11:22:23;1.50;95.30
73438;DHT22;66471;56.532;21.020;2023-01-08T11:24:52;1.70;95.30
73438;DHT22;66471;56.532;21.020;2023-01-08T11:27:27;1.50;95.10
73438;DHT22;66471;56.532;21.020;2023-01-08T11:35:19;1.60;95.40
73438;DHT22;66471;56.532;21.020;2023-01-08T11:37:54;1.50;94.70
73438;DHT22;66471;56.532;21.020;2023-01-08T11:46:23;1.80;94.60
73438;DHT22;66471;56.532;21.020;2023-01-08T11:58:04;2.20;93.50
73438;DHT22;66471;56.532;21.020;2023-01-08T12:00:56;2.20;92.80
73438;DHT22;66471;56.532;21.020;2023-01-08T12:08:42;2.40;93.10
73438;DHT22;66471;56.532;21.020;2023-01-08T12:11:27;2.70;90.60
73438;DHT22;66471;56.532;21.020;2023-01-08T12:28:01;2.40;90.90
73438;DHT22;66471;56.532;21.020;2023-01-08T12:35:59;2.50;90.80
73438;DHT22;66471;56.532;21.020;2023-01-08T12:38:38;2.50;90.30
73438;DHT22;66471;56.532;21.020;2023-01-08T12:41:11;2.30;90.70
73438;DHT22;66471;56.532;21.020;2023-01-08T12:44:02;2.70;89.80
73438;DHT22;66471;56.532;21.020;2023-01-08T12:46:36;2.70;89.90
73438;DHT22;66471;56.532;21.020;2023-01-08T12:49:04;2.50;90.10
73438;DHT22;66471;56.532;21.020;2023-01-08T12:51:45;2.90;89.30
73438;DHT22;66471;56.532;21.020;2023-01-08T12:57:16;3.00;88.60
73438;DHT22;66471;56.532;21.020;2023-01-08T12:59:46;2.80;88.60
73438;DHT22;66471;56.532;21.020;2023-01-08T13:05:27;2.80;88.20
73438;DHT22;66471;56.532;21.020;2023-01-08T13:08:02;3.00;88.10
73438;DHT22;66471;56.532;21.020;2023-01-08T13:10:37;2.70;88.30
73438;DHT22;66471;56.532;21.020;2023-01-08T13:13:07;2.60;88.00
73438;DHT22;66471;56.532;21.020;2023-01-08T13:16:22;2.80;88.20
73438;DHT22;66471;56.532;21.020;2023-01-08T13:18:55;2.80;88.60
73438;DHT22;66471;56.532;21.020;2023-01-08T13:21:50;2.60;88.80
73438;DHT22;66471;56.532;21.020;2023-01-08T13:24:47;2.50;89.50
73438;DHT22;66471;56.532;21.020;2023-01-08T13:29:46;2.40;89.60
73438;DHT22;66471;56.532;21.020;2023-01-08T13:37:45;2.10;89.90
73438;DHT22;66471;56.532;21.020;2023-01-08T13:40:34;2.20;89.90
73438;DHT22;66471;56.532;21.020;2023-01-08T13:43:11;2.10;90.00
73438;DHT22;66471;56.532;21.020;2023-01-08T13:45:39;2.10;90.10
73438;DHT22;66471;56.532;21.020;2023-01-08T13:48:20;2.20;90.10
73438;DHT22;66471;56.532;21.020;2023-01-08T13:50:48;2.20;90.20
73438;DHT22;66471;56.532;21.020;2023-01-08T13:53:15;1.80;90.50
73438;DHT22;66471;56.532;21.020;2023-01-08T13:56:01;2.10;90.30
73438;DHT22;66471;56.532;21.020;2023-01-08T13:58:45;1.80;90.50
73438;DHT22;66471;56.532;21.020;2023-01-08T14:01:17;1.90;90.60
73438;DHT22;66471;56.532;21.020;2023-01-08T14:03:46;2.00;90.70
73438;DHT22;66471;56.532;21.020;2023-01-08T14:06:19;1.80;90.60
73438;DHT22;66471;56.532;21.020;2023-01-08T16:06:13;1.80;90.00
73438;DHT22;66471;56.532;21.020;2023-01-08T16:08:40;2.00;90.00
73438;DHT22;66471;56.532;21.020;2023-01-08T16:11:12;2.10;89.80
73438;DHT22;66471;56.532;21.020;2023-01-08T16:13:39;2.00;89.70
73438;DHT22;66471;56.532;21.020;2023-01-08T16:16:14;2.00;89.10
73438;DHT22;66471;56.532;21.020;2023-01-08T16:18:41;2.30;89.30
73438;DHT22;66471;56.532;21.020;2023-01-08T16:21:09;2.10;89.30
73438;DHT22;66471;56.532;21.020;2023-01-08T16:23:37;2.00;89.40
73438;DHT22;66471;56.532;21.020;2023-01-08T16:26:06;2.00;89.20
73438;DHT22;66471;56.532;21.020;2023-01-08T16:28:33;2.10;89.00
73438;DHT22;66471;56.532;21.020;2023-01-08T16:31:01;1.90;89.20
73438;DHT22;66471;56.532;21.020;2023-01-08T16:33:28;2.10;89.40
73438;DHT22;66471;56.532;21.020;2023-01-08T16:36:00;2.10;89.40
73438;DHT22;66471;56.532;21.020;2023-01-08T16:38:28;2.00;89.20
73438;DHT22;66471;56.532;21.020;2023-01-08T16:40:55;2.10;89.40
73438;DHT22;66471;56.532;21.020;2023-01-08T16:43:23;2.10;89.10
73438;DHT22;66471;56.532;21.020;2023-01-08T16:45:51;2.00;89.30
